Time;durP1;ratioP1;P1;durP2;ratioP2;P2;SDS_P1;SDS_P2;PMS_P1;PMS_P2;Temp;Humidity;BMP_temperature;BMP_pressure;BME280_temperature;BME280_humidity;BME280_pressure;Samples;Min_cycle;Max_cycle;Signal;HPM_P1;HPM_P2
2022/01/01 00:00:46;;;;;;;10.40;6.27;;;;;;;-1.09;79.59;99916.75;5074665;28;20052;-60
2022/01/01 00:03:11;;;;;;;10.03;6.27;;;;;;;-1.04;79.02;99925.09;5074478;28;20093;-54
2022/01/01 00:05:37;;;;;;;7.03;5.17;;;;;;;-1.06;79.02;99927.00;5074621;28;20514;-59
2022/01/01 00:08:05;;;;;;;7.40;5.57;;;;;;;-1.31;78.48;99887.88;5075005;28;20129;-60
2022/01/01 00:10:31;;;;;;;9.18;5.35;;;;;;;-1.20;78.77;99906.22;5075188;28;20169;-60
2022/01/01 00:12:56;;;;;;;7.00;5.47;;;;;;;-1.16;78.18;99915.50;5074705;28;20119;-58
2022/01/01 00:15:22;;;;;;;7.17;5.10;;;;;;;-1.02;78.60;99928.44;5074753;28;20048;-55
2022/01/01 00:17:47;;;;;;;7.73;5.10;;;;;;;-0.99;77.98;99933.44;5074362;28;20039;-58
2022/01/01 00:20:14;;;;;;;8.23;5.73;;;;;;;-0.97;78.45;99934.16;5074623;28;20391;-59
2022/01/01 00:22:40;;;;;;;7.63;5.00;;;;;;;-1.49;77.53;99849.97;5074406;28;20123;-56
2022/01/01 00:25:07;;;;;;;6.00;4.33;;;;;;;-1.20;77.36;99897.53;5073254;28;20263;-58
2022/01/01 00:27:33;;;;;;;6.73;5.03;;;;;;;-0.95;77.68;99939.28;5074274;28;20286;-59
2022/01/01 00:29:59;;;;;;;6.47;4.70;;;;;;;-1.00;77.17;99930.94;5074139;28;20273;-59
2022/01/01 00:32:24;;;;;;;6.40;5.10;;;;;;;-1.09;77.00;99916.75;5074055;28;20115;-58
2022/01/01 00:34:50;;;;;;;4.97;3.80;;;;;;;-1.01;77.17;99937.94;5074395;28;20037;-54
2022/01/01 00:37:16;;;;;;;4.77;3.50;;;;;;;-1.22;76.68;99910.72;5074248;28;20052;-59
2022/01/01 00:39:42;;;;;;;3.83;3.03;;;;;;;-1.12;76.23;99927.44;5074421;28;20267;-56
2022/01/01 00:42:08;;;;;;;3.80;3.07;;;;;;;-1.11;76.34;99947.38;5074044;28;20267;-61
2022/01/01 00:44:37;;;;;;;3.97;3.10;;;;;;;-1.14;76.36;99926.72;5074104;28;20036;-61
2022/01/01 00:47:03;;;;;;;4.93;3.47;;;;;;;-1.15;76.54;99932.88;5073987;28;20321;-58
2022/01/01 00:49:29;;;;;;;3.50;3.20;;;;;;;-1.17;76.59;99929.50;5055842;28;20063;-62
2022/01/01 00:51:55;;;;;;;5.17;3.63;;;;;;;-1.10;76.32;99951.66;5073997;28;20742;-54
2022/01/01 00:54:21;;;;;;;3.37;2.60;;;;;;;-1.10;75.25;99946.44;5074029;28;20082;-58
2022/01/01 00:56:46;;;;;;;5.03;3.63;;;;;;;-1.21;74.59;99948.13;5074853;28;20263;-58
2022/01/01 00:59:12;;;;;;;3.17;2.80;;;;;;;-1.19;73.87;99952.28;5074973;28;20472;-61
2022/01/01 01:01:38;;;;;;;3.77;3.37;;;;;;;-1.25;74.52;99948.34;5073926;28;20048;-62
2022/01/01 01:04:04;;;;;;;4.77;3.63;;;;;;;-1.33;74.82;99949.81;5073728;28;20040;-59
2022/01/01 01:06:30;;;;;;;3.90;3.30;;;;;;;-1.26;75.13;99961.50;5073729;28;20287;-57
2022/01/01 01:08:58;;;;;;;5.33;4.10;;;;;;;-1.22;75.05;99968.19;5073620;28;20362;-57
2022/01/01 01:11:25;;;;;;;4.43;3.72;;;;;;;-1.28;74.90;99950.34;5073387;28;20063;-56
2022/01/01 01:13:57;;;;;;;5.43;2.80;;;;;;;-1.35;74.98;99949.09;5073444;28;20411;-60
2022/01/01 01:16:25;;;;;;;3.30;3.00;;;;;;;-1.44;74.77;99944.53;5073963;28;20754;-57
2022/01/01 01:18:53;;;;;;;3.20;2.90;;;;;;;-1.41;75.06;99959.97;5073722;28;20273;-62
2022/01/01 01:21:20;;;;;;;4.00;3.03;;;;;;;-1.43;74.80;99967.94;5073890;28;20072;-56
2022/01/01 01:23:47;;;;;;;3.23;2.43;;;;;;;-1.36;74.49;99973.56;5073332;28;20693;-58
2022/01/01 01:26:13;;;;;;;3.20;2.90;;;;;;;-1.39;74.06;99981.59;5073048;28;20344;-55
2022/01/01 01:28:45;;;;;;;4.07;3.10;;;;;;;-1.38;73.83;99991.09;5072905;28;20262;-56
2022/01/01 01:31:11;;;;;;;4.53;3.30;;;;;;;-1.44;74.40;99978.47;5073453;28;20119;-55
2022/01/01 01:33:36;;;;;;;2.90;2.70;;;;;;;-1.45;73.64;99989.84;5072835;28;20317;-61
2022/01/01 01:36:02;;;;;;;3.70;2.33;;;;;;;-1.53;74.13;99979.91;5072927;28;20037;-59
2022/01/01 01:38:27;;;;;;;2.53;2.30;;;;;;;-1.59;74.36;100002.06;5072851;28;20036;-52
2022/01/01 01:40:53;;;;;;;3.73;2.40;;;;;;;-1.66;74.78;99985.16;5072487;28;20442;-62
2022/01/01 01:43:19;;;;;;;16.60;2.97;;;;;;;-1.70;74.92;99982.88;5072513;28;20115;-61
2022/01/01 01:45:47;;;;;;;2.33;2.13;;;;;;;-1.66;74.62;100007.81;5072615;28;20056;-58
2022/01/01 01:48:13;;;;;;;3.13;2.55;;;;;;;-1.72;75.34;99996.03;5072552;28;20476;-56
2022/01/01 01:50:39;;;;;;;3.23;2.67;;;;;;;-1.69;75.15;100006.25;5072228;28;20080;-59
2022/01/01 01:53:06;;;;;;;3.13;2.33;;;;;;;-1.75;74.86;99992.75;5072277;28;20472;-56
2022/01/01 01:55:32;;;;;;;2.47;2.28;;;;;;;-1.71;75.41;99997.69;5072301;28;20032;-58
2022/01/01 01:57:58;;;;;;;2.33;2.03;;;;;;;-1.71;75.18;100015.97;5072470;28;20108;-57
2022/01/01 02:03:11;;;;;;;6.38;3.42;;;;;;;-1.72;75.30;99996.03;5072280;28;20263;-57
2022/01/01 02:05:40;;;;;;;4.28;3.25;;;;;;;-1.72;74.98;99989.97;5071985;28;20059;-56
2022/01/01 02:08:06;;;;;;;2.60;2.28;;;;;;;-1.70;74.63;99994.13;5071899;28;20043;-54
2022/01/01 02:10:33;;;;;;;4.20;2.77;;;;;;;-1.78;75.18;99985.97;5072080;28;20498;-55
2022/01/01 02:13:02;;;;;;;4.07;3.67;;;;;;;-1.68;74.91;100002.69;5072318;28;20262;-60
2022/01/01 02:15:58;;;;;;;2.63;2.22;;;;;;;-1.77;74.61;100003.28;5072112;28;20048;-56
2022/01/01 02:18:24;;;;;;;4.18;3.20;;;;;;;-1.93;74.94;99971.34;5071769;28;20052;-54
2022/01/01 02:20:50;;;;;;;3.00;2.70;;;;;;;-1.93;75.20;99966.13;5071674;28;20094;-57
2022/01/01 02:23:25;;;;;;;3.17;2.83;;;;;;;-1.66;74.71;100021.72;5071847;28;20101;-58
2022/01/01 02:25:54;;;;;;;4.00;2.97;;;;;;;-1.70;74.34;100015.03;5072039;28;20029;-54
2022/01/01 02:28:20;;;;;;;4.15;2.60;;;;;;;-1.83;74.04;100005.50;5071653;28;20271;-58
2022/01/01 02:30:46;;;;;;;2.80;2.60;;;;;;;-2.05;73.28;99978.19;5071586;28;20033;-54
2022/01/01 02:33:12;;;;;;;2.17;2.03;;;;;;;-1.86;73.91;100014.34;5070088;28;20361;-58
2022/01/01 02:35:37;;;;;;;2.57;2.37;;;;;;;-1.80;73.39;100034.81;5071600;28;20365;-54
2022/01/01 02:38:03;;;;;;;2.87;2.47;;;;;;;-1.72;73.63;100047.41;5071456;28;20056;-56
2022/01/01 02:40:29;;;;;;;2.47;2.27;;;;;;;-1.82;72.97;100036.69;5071782;28;20044;-59
2022/01/01 02:42:55;;;;;;;2.87;2.67;;;;;;;-1.92;73.81;100031.28;5071391;28;20044;-60
2022/01/01 02:45:21;;;;;;;3.13;2.10;;;;;;;-2.02;73.26;100045.03;5071290;28;20052;-60
2022/01/01 02:47:47;;;;;;;2.35;2.15;;;;;;;-1.97;73.45;100056.84;5070907;28;20087;-57
2022/01/01 02:50:13;;;;;;;2.70;2.50;;;;;;;-2.04;73.87;100042.50;5071520;28;20115;-57
2022/01/01 02:52:39;;;;;;;2.30;2.10;;;;;;;-2.01;74.13;100038.88;5071598;28;20040;-57
2022/01/01 02:55:06;;;;;;;2.63;2.43;;;;;;;-1.93;74.19;100042.66;5071586;28;20290;-58
2022/01/01 02:57:32;;;;;;;2.67;2.42;;;;;;;-1.91;74.58;100050.38;5071362;28;20460;-54
2022/01/01 02:59:58;;;;;;;2.40;2.20;;;;;;;-1.90;73.93;100052.88;5071246;28;20040;-56
2022/01/01 03:02:23;;;;;;;4.07;2.00;;;;;;;-1.87;73.81;100054.44;5071158;28;20506;-59
2022/01/01 03:04:49;;;;;;;3.00;2.40;;;;;;;-2.08;73.04;100020.16;5070181;28;20033;-57
2022/01/01 03:07:14;;;;;;;2.27;2.07;;;;;;;-1.90;72.95;100052.03;5071082;28;20040;-58
2022/01/01 03:09:40;;;;;;;2.60;2.40;;;;;;;-1.92;73.22;100061.75;5071055;28;20511;-60
2022/01/01 03:12:08;;;;;;;2.50;2.30;;;;;;;-1.98;73.63;100062.16;5071125;28;20043;-55
2022/01/01 03:14:35;;;;;;;2.70;2.50;;;;;;;-2.24;72.89;100022.09;5071178;28;20033;-56
2022/01/01 03:17:01;;;;;;;2.53;2.33;;;;;;;-2.06;73.20;100062.63;5070965;28;20032;-57
2022/01/01 03:19:27;;;;;;;2.47;2.22;;;;;;;-2.16;73.30;100061.56;5071109;28;20090;-54
2022/01/01 03:21:53;;;;;;;2.80;2.43;;;;;;;-2.14;74.18;100061.47;5071155;28;20499;-52
2022/01/01 03:24:19;;;;;;;2.60;2.40;;;;;;;-2.32;73.49;100019.97;5071698;28;20385;-56
2022/01/01 03:26:44;;;;;;;3.25;2.95;;;;;;;-2.26;73.90;100024.81;5071054;28;20076;-57
2022/01/01 03:29:10;;;;;;;2.93;2.70;;;;;;;-2.09;73.08;100069.81;5070964;28;20067;-58
2022/01/01 03:31:36;;;;;;;2.73;2.23;;;;;;;-2.09;73.50;100075.03;5070767;28;20048;-58
2022/01/01 03:34:03;;;;;;;2.87;2.60;;;;;;;-2.19;74.26;100066.97;5069913;28;20033;-59
2022/01/01 03:36:29;;;;;;;4.13;2.78;;;;;;;-2.12;73.29;100085.69;5071414;28;20051;-57
2022/01/01 03:38:55;;;;;;;3.10;2.77;;;;;;;-2.08;73.96;100092.38;5071094;28;20488;-60
2022/01/01 03:41:21;;;;;;;5.37;4.13;;;;;;;-2.35;73.69;100042.81;5071083;28;20328;-57
2022/01/01 03:43:47;;;;;;;3.70;3.00;;;;;;;-2.11;73.47;100079.53;5070804;28;20768;-60
2022/01/01 03:46:15;;;;;;;4.03;2.63;;;;;;;-2.22;73.28;100065.41;5070862;28;20060;-57
2022/01/01 03:48:47;;;;;;;4.10;2.80;;;;;;;-2.06;73.38;100093.94;5071180;28;20064;-58
2022/01/01 03:51:13;;;;;;;4.03;3.07;;;;;;;-2.08;72.94;100087.97;5070975;28;20470;-58
2022/01/01 03:53:38;;;;;;;3.53;3.00;;;;;;;-2.01;73.66;100084.06;5071073;28;20029;-54
2022/01/01 03:56:04;;;;;;;3.33;2.30;;;;;;;-1.99;72.36;100091.78;5069746;28;20040;-56
2022/01/01 03:58:30;;;;;;;2.43;2.23;;;;;;;-2.05;72.07;100081.72;5070844;28;20036;-57
2022/01/01 04:00:55;;;;;;;3.03;2.70;;;;;;;-2.12;72.27;100083.06;5074410;28;20071;-57
2022/01/01 04:03:21;;;;;;;2.70;2.37;;;;;;;-2.30;71.87;100062.47;5074725;28;20198;-55
2022/01/01 04:05:46;;;;;;;2.83;2.50;;;;;;;-2.12;72.81;100085.69;5074357;28;20453;-51
2022/01/01 04:08:13;;;;;;;3.43;2.93;;;;;;;-2.15;72.00;100080.66;5073612;28;20036;-55
2022/01/01 04:10:39;;;;;;;3.63;3.33;;;;;;;-2.10;72.88;100086.41;5074955;28;20032;-60
2022/01/01 04:13:07;;;;;;;3.83;2.78;;;;;;;-2.04;72.48;100097.28;5074539;28;20036;-57
2022/01/01 04:15:35;;;;;;;2.55;2.35;;;;;;;-1.98;71.92;100106.50;5074444;28;20050;-55
2022/01/01 04:18:06;;;;;;;2.80;2.50;;;;;;;-2.03;72.74;100105.94;5074510;28;20202;-60
2022/01/01 04:20:32;;;;;;;3.85;2.72;;;;;;;-2.03;72.54;100111.16;5074434;28;20650;-56
2022/01/01 04:22:57;;;;;;;2.63;2.40;;;;;;;-2.13;72.29;100089.22;5074414;28;20032;-54
2022/01/01 04:25:24;;;;;;;3.63;2.53;;;;;;;-2.09;72.18;100091.53;5074170;28;20031;-59
2022/01/01 04:27:51;;;;;;;3.03;2.42;;;;;;;-2.08;72.05;100101.03;5073856;28;20052;-60
2022/01/01 04:30:18;;;;;;;2.85;2.45;;;;;;;-2.08;72.50;100103.63;5074166;28;20071;-57
2022/01/01 04:32:43;;;;;;;3.33;2.70;;;;;;;-2.04;72.28;100115.53;5074037;28;20040;-58
2022/01/01 04:35:10;;;;;;;4.50;3.33;;;;;;;-2.02;71.79;100123.31;5073968;28;20078;-53
2022/01/01 04:37:36;;;;;;;2.17;1.90;;;;;;;-2.09;72.36;100106.34;5073808;28;20041;-57
2022/01/01 04:40:03;;;;;;;4.00;3.35;;;;;;;-2.06;72.02;100111.38;5073561;28;20278;-56
2022/01/01 04:42:30;;;;;;;3.05;2.67;;;;;;;-2.00;71.94;100126.66;5073923;28;20518;-55
2022/01/01 04:44:58;;;;;;;2.70;2.50;;;;;;;-2.34;72.75;100081.81;5072390;28;20049;-59
2022/01/01 04:47:27;;;;;;;4.65;2.30;;;;;;;-2.04;71.81;100146.03;5072408;28;20519;-58
2022/01/01 04:49:53;;;;;;;;;;;;;;;-1.98;72.87;100154.31;5074389;28;20476;-59
2022/01/01 04:52:18;;;;;;;3.93;2.87;;;;;;;-2.08;71.86;100134.09;5073574;28;19962;-55
2022/01/01 04:54:44;;;;;;;2.60;2.40;;;;;;;-2.22;72.10;100133.22;5073726;28;20078;-54
2022/01/01 04:57:12;;;;;;;2.88;2.58;;;;;;;-2.08;72.17;100150.59;5074686;28;20029;-56
2022/01/01 04:59:39;;;;;;;3.22;2.75;;;;;;;-2.10;72.38;100146.41;5074593;28;20033;-58
2022/01/01 05:02:05;;;;;;;2.88;2.67;;;;;;;-2.14;71.80;100144.94;5073585;28;20051;-59
2022/01/01 05:04:31;;;;;;;2.70;2.50;;;;;;;-2.29;72.48;100144.97;5073515;28;20032;-58
2022/01/01 05:06:56;;;;;;;2.90;2.60;;;;;;;-2.22;72.60;100154.09;5072037;28;20028;-58
2022/01/01 05:09:22;;;;;;;4.13;3.13;;;;;;;-2.23;72.24;100157.63;5073469;28;20518;-58
2022/01/01 05:11:48;;;;;;;2.80;2.50;;;;;;;-2.27;72.52;100156.16;5072827;28;20041;-55
2022/01/01 05:14:15;;;;;;;3.25;2.22;;;;;;;-2.26;72.06;100157.00;5072345;28;20067;-58
2022/01/01 05:16:41;;;;;;;2.70;2.50;;;;;;;-2.30;73.16;100145.91;5072426;28;20040;-59
2022/01/01 05:19:07;;;;;;;3.80;3.20;;;;;;;-2.24;72.83;100150.75;5074322;28;20214;-56
2022/01/01 05:21:36;;;;;;;2.83;2.47;;;;;;;-2.32;71.96;100150.38;5073006;28;20040;-58
2022/01/01 05:24:06;;;;;;;3.20;2.83;;;;;;;-2.25;72.29;100158.66;5073082;28;20040;-59
2022/01/01 05:26:32;;;;;;;2.80;2.60;;;;;;;-2.20;71.78;100170.47;5073016;28;20089;-57
2022/01/01 05:28:58;;;;;;;3.25;2.95;;;;;;;-2.22;71.31;100184.56;5073173;28;20139;-57
2022/01/01 05:31:23;;;;;;;2.60;2.40;;;;;;;-2.38;71.26;100163.78;5072910;28;20032;-58
2022/01/01 05:33:49;;;;;;;5.03;2.73;;;;;;;-2.47;71.44;100158.31;5072908;28;20552;-56
2022/01/01 05:36:16;;;;;;;3.47;3.17;;;;;;;-2.45;72.21;100167.72;5072957;28;20043;-56
2022/01/01 05:38:42;;;;;;;3.65;3.35;;;;;;;-2.45;72.27;100169.50;5072688;28;20064;-61
2022/01/01 05:41:08;;;;;;;2.95;2.72;;;;;;;-2.38;72.02;100189.88;5073161;28;20043;-59
2022/01/01 05:43:33;;;;;;;2.50;2.30;;;;;;;-2.57;70.74;100158.06;5072802;28;20032;-58
2022/01/01 05:46:00;;;;;;;3.03;2.33;;;;;;;-2.42;71.57;100193.59;5072674;28;20056;-57
2022/01/01 05:48:25;;;;;;;3.47;2.72;;;;;;;-2.40;71.42;100196.94;5072516;28;20085;-58
2022/01/01 05:50:51;;;;;;;4.07;3.07;;;;;;;-2.57;71.62;100173.69;5072402;28;20032;-58
2022/01/01 05:53:17;;;;;;;4.07;2.97;;;;;;;-2.38;71.41;100202.91;5071193;28;20043;-60
2022/01/01 05:55:43;;;;;;;4.07;3.38;;;;;;;-2.39;71.22;100209.06;5072720;28;20032;-53
2022/01/01 05:58:08;;;;;;;3.37;3.07;;;;;;;-2.51;71.31;100209.81;5072338;28;20033;-56
2022/01/01 06:00:35;;;;;;;2.90;2.60;;;;;;;-2.42;72.10;100230.13;5072442;28;20189;-57
2022/01/01 06:03:01;;;;;;;3.40;2.95;;;;;;;-2.38;72.19;100233.38;5072318;28;20032;-57
2022/01/01 06:05:27;;;;;;;3.78;2.67;;;;;;;-2.30;72.01;100234.59;5072186;28;20416;-60
2022/01/01 06:07:54;;;;;;;3.15;2.53;;;;;;;-2.40;71.56;100215.22;5072321;28;20501;-56
2022/01/01 06:10:21;;;;;;;2.47;2.28;;;;;;;-2.26;71.63;100251.72;5073061;28;20113;-58
2022/01/01 06:12:46;;;;;;;3.00;2.80;;;;;;;-2.32;70.97;100241.66;5072766;28;20036;-59
2022/01/01 06:15:12;;;;;;;4.03;2.77;;;;;;;-2.40;70.91;100249.09;5071330;28;20500;-58
2022/01/01 06:17:37;;;;;;;2.77;2.57;;;;;;;-2.35;70.99;100267.09;5072471;28;20036;-58
2022/01/01 06:20:04;;;;;;;2.87;2.67;;;;;;;-2.55;71.13;100234.41;5072444;28;20032;-61
2022/01/01 06:22:30;;;;;;;2.85;2.50;;;;;;;-2.62;71.12;100241.72;5072076;28;20051;-57
2022/01/01 06:24:55;;;;;;;3.83;3.50;;;;;;;-2.53;70.90;100258.59;5071921;28;20036;-56
2022/01/01 06:27:21;;;;;;;3.00;2.70;;;;;;;-2.45;70.93;100272.03;5071939;28;20574;-57
2022/01/01 06:29:47;;;;;;;3.47;3.17;;;;;;;-2.49;71.19;100270.53;5071887;28;20039;-58
2022/01/01 06:32:13;;;;;;;3.75;3.17;;;;;;;-2.78;71.52;100214.91;5053909;28;20045;-59
2022/01/01 06:34:39;;;;;;;3.25;2.95;;;;;;;-2.44;70.57;100265.88;5070410;28;20033;-57
2022/01/01 06:37:05;;;;;;;3.05;2.85;;;;;;;-2.33;70.30;100275.66;5071498;28;20094;-56
2022/01/01 06:39:30;;;;;;;3.30;3.00;;;;;;;-2.32;70.91;100278.16;5072113;28;20071;-59
2022/01/01 06:41:56;;;;;;;3.40;2.93;;;;;;;-2.37;70.93;100277.59;5071788;28;20036;-58
2022/01/01 06:44:21;;;;;;;3.60;2.97;;;;;;;-2.44;71.14;100284.13;5072266;28;20034;-54
2022/01/01 06:46:47;;;;;;;3.33;3.00;;;;;;;-2.46;71.30;100266.91;5071498;28;20064;-55
2022/01/01 06:49:13;;;;;;;3.63;2.70;;;;;;;-2.33;70.60;100289.53;5071474;28;20049;-57
2022/01/01 06:51:38;;;;;;;5.03;3.80;;;;;;;-2.47;71.94;100263.44;5070102;28;20498;-57
2022/01/01 06:54:05;;;;;;;3.60;2.67;;;;;;;-2.28;71.57;100302.31;5070322;28;20055;-57
2022/01/01 06:56:31;;;;;;;3.47;3.17;;;;;;;-2.28;71.15;100292.72;5071576;28;20131;-59
2022/01/01 06:58:56;;;;;;;3.90;3.13;;;;;;;-2.13;71.50;100306.59;5071577;28;20083;-57
2022/01/01 07:01:22;;;;;;;4.80;3.23;;;;;;;-2.10;71.24;100316.84;5071567;28;20166;-60
2022/01/01 07:03:47;;;;;;;3.60;3.10;;;;;;;-2.37;71.42;100275.00;5071388;28;20051;-57
2022/01/01 07:06:13;;;;;;;3.13;2.83;;;;;;;-2.15;71.33;100299.78;5071475;28;20094;-59
2022/01/01 07:08:38;;;;;;;3.80;2.90;;;;;;;-2.11;71.70;100316.94;5071828;28;20029;-56
2022/01/01 07:11:04;;;;;;;4.37;3.07;;;;;;;-2.15;71.04;100310.22;5071639;28;20033;-59
2022/01/01 07:13:30;;;;;;;3.33;3.00;;;;;;;-2.11;71.54;100322.16;5071284;28;20032;-60
2022/01/01 07:15:55;;;;;;;4.63;3.43;;;;;;;-2.14;71.56;100319.72;5071380;28;20086;-57
2022/01/01 07:18:21;;;;;;;3.83;3.03;;;;;;;-2.12;71.23;100343.94;5071327;28;20102;-59
2022/01/01 07:20:46;;;;;;;5.07;3.70;;;;;;;-2.19;72.12;100333.91;5071331;28;20043;-56
2022/01/01 07:23:36;;;;;;;3.50;3.20;;;;;;;-2.23;71.56;100332.41;5071363;28;20075;-60
2022/01/01 07:26:02;;;;;;;4.67;3.10;;;;;;;-2.48;71.72;100297.44;5071428;28;20495;-60
2022/01/01 07:28:27;;;;;;;3.57;3.27;;;;;;;-2.26;71.87;100345.63;5069994;28;20044;-56
2022/01/01 07:30:53;;;;;;;4.27;3.73;;;;;;;-2.28;70.70;100347.50;5071097;28;20033;-58
2022/01/01 07:33:18;;;;;;;3.30;3.00;;;;;;;-2.37;71.46;100341.97;5069597;28;20403;-55
2022/01/01 07:35:44;;;;;;;3.27;3.00;;;;;;;-2.38;70.81;100346.34;5074197;28;20044;-58
2022/01/01 07:38:10;;;;;;;3.93;3.40;;;;;;;-2.39;71.03;100365.53;5075421;28;20051;-58
2022/01/01 07:40:35;;;;;;;3.78;3.30;;;;;;;-2.43;70.43;100363.19;5073989;28;20055;-58
2022/01/01 07:43:12;;;;;;;6.47;3.77;;;;;;;-2.52;70.54;100356.75;5074969;28;20487;-56
2022/01/01 07:45:41;;;;;;;5.75;4.15;;;;;;;-2.45;70.13;100371.09;5074984;28;20052;-55
2022/01/01 07:48:07;;;;;;;4.63;3.20;;;;;;;-2.63;69.36;100359.97;5075155;28;20043;-60
2022/01/01 07:50:32;;;;;;;3.57;3.10;;;;;;;-2.79;68.27;100350.53;5073945;28;20549;-60
2022/01/01 07:52:58;;;;;;;3.70;3.40;;;;;;;-2.65;67.51;100374.84;5075059;28;20079;-60
2022/01/01 07:55:23;;;;;;;4.20;3.80;;;;;;;-2.69;67.15;100367.31;5075206;28;20040;-56
2022/01/01 07:57:49;;;;;;;3.60;3.30;;;;;;;-2.73;67.91;100371.88;5074763;28;20423;-55
2022/01/01 08:00:15;;;;;;;4.17;3.77;;;;;;;-2.81;67.86;100364.50;5074743;28;20045;-58
2022/01/01 08:02:42;;;;;;;3.70;3.40;;;;;;;-2.73;67.88;100384.91;5073454;28;20536;-53
2022/01/01 08:05:08;;;;;;;3.90;3.55;;;;;;;-2.62;68.21;100395.53;5073357;28;20130;-58
2022/01/01 08:07:34;;;;;;;3.58;3.28;;;;;;;-2.58;67.81;100396.22;5074842;28;20044;-57
2022/01/01 08:09:59;;;;;;;4.13;3.47;;;;;;;-2.69;69.10;100383.78;5075022;28;20036;-57
2022/01/01 08:12:25;;;;;;;4.30;3.00;;;;;;;-2.74;68.60;100398.00;5074687;28;20487;-60
2022/01/01 08:14:50;;;;;;;4.73;3.40;;;;;;;-2.60;68.91;100403.31;5074558;28;20033;-56
2022/01/01 08:17:16;;;;;;;4.83;3.30;;;;;;;-2.57;68.77;100408.34;5074402;28;20036;-59
2022/01/01 08:19:42;;;;;;;4.60;3.77;;;;;;;-2.53;69.73;100422.88;5074392;28;20121;-62
2022/01/01 08:22:08;;;;;;;5.05;3.85;;;;;;;-2.65;69.80;100394.88;5074691;28;20040;-57
2022/01/01 08:24:34;;;;;;;4.03;3.53;;;;;;;-2.53;69.41;100422.88;5074477;28;20479;-58
2022/01/01 08:27:01;;;;;;;4.13;3.73;;;;;;;-2.45;69.50;100423.25;5074136;28;20055;-61
2022/01/01 08:29:28;;;;;;;4.35;3.95;;;;;;;-2.75;68.72;100370.28;5074069;28;20024;-56
2022/01/01 08:31:56;;;;;;;3.72;3.42;;;;;;;-2.56;68.45;100420.44;5074244;28;20047;-59
2022/01/01 08:34:21;;;;;;;4.78;4.28;;;;;;;-2.58;68.58;100423.13;5074586;28;20024;-55
2022/01/01 08:36:47;;;;;;;4.83;4.40;;;;;;;-2.64;69.31;100422.63;5074218;28;20139;-55
2022/01/01 08:39:13;;;;;;;3.87;3.47;;;;;;;-2.60;69.01;100424.16;5074152;28;20101;-54
2022/01/01 08:41:39;;;;;;;4.35;3.72;;;;;;;-2.81;68.85;100389.72;5073018;28;20036;-60
2022/01/01 08:44:05;;;;;;;4.80;4.07;;;;;;;-2.95;69.46;100372.22;5074119;28;20028;-56
2022/01/01 08:46:31;;;;;;;4.10;3.70;;;;;;;-2.59;69.80;100420.63;5073056;28;20057;-54
2022/01/01 08:48:57;;;;;;;5.03;3.78;;;;;;;-2.52;70.50;100433.22;5074142;28;20131;-59
2022/01/01 08:51:23;;;;;;;4.40;3.80;;;;;;;-2.61;69.70;100427.66;5074396;28;20131;-55
2022/01/01 08:53:49;;;;;;;4.33;3.93;;;;;;;-2.53;68.65;100443.72;5073820;28;20044;-59
2022/01/01 08:56:15;;;;;;;4.80;4.32;;;;;;;-2.51;69.12;100444.47;5073686;28;20041;-58
2022/01/01 08:58:41;;;;;;;4.38;3.65;;;;;;;-2.69;68.85;100403.81;5073651;28;20032;-54
2022/01/01 09:01:08;;;;;;;5.13;4.40;;;;;;;-2.65;69.35;100439.19;5073814;28;20487;-59
2022/01/01 09:03:35;;;;;;;4.55;3.83;;;;;;;-2.69;69.43;100446.34;5074163;28;20356;-58
2022/01/01 09:06:02;;;;;;;4.57;4.18;;;;;;;-2.83;69.67;100449.75;5073380;28;20044;-56
2022/01/01 09:08:29;;;;;;;6.85;4.75;;;;;;;-2.79;70.85;100444.34;5073730;28;20047;-57
2022/01/01 09:10:54;;;;;;;4.63;4.07;;;;;;;-2.84;70.60;100448.06;5073445;28;20036;-58
2022/01/01 09:13:20;;;;;;;4.47;4.07;;;;;;;-2.82;68.82;100467.06;5073621;28;20387;-58
2022/01/01 09:15:45;;;;;;;4.43;4.03;;;;;;;-2.85;69.43;100479.41;5073529;28;20120;-57
2022/01/01 09:18:11;;;;;;;4.33;3.80;;;;;;;-3.18;68.67;100429.97;5073593;28;20032;-59
2022/01/01 09:20:36;;;;;;;4.53;3.90;;;;;;;-2.95;68.80;100486.03;5074582;28;20036;-54
2022/01/01 09:23:03;;;;;;;4.60;4.20;;;;;;;-2.97;69.23;100493.94;5074891;28;20044;-62
2022/01/01 09:25:29;;;;;;;6.60;4.65;;;;;;;-3.07;68.34;100468.47;5073138;28;20044;-60
2022/01/01 09:27:54;;;;;;;4.20;3.80;;;;;;;-2.91;69.07;100497.97;5073175;28;20523;-58
2022/01/01 09:30:20;;;;;;;4.77;4.37;;;;;;;-2.93;69.14;100503.25;5071895;28;20203;-63
2022/01/01 09:32:45;;;;;;;4.00;3.60;;;;;;;-3.33;68.75;100457.69;5073137;28;20136;-62
2022/01/01 09:35:11;;;;;;;9.03;5.57;;;;;;;-3.11;68.69;100504.28;5073101;28;20032;-59
2022/01/01 09:37:37;;;;;;;4.10;3.67;;;;;;;-3.47;68.34;100453.22;5073142;28;20059;-58
2022/01/01 09:40:03;;;;;;;4.43;4.03;;;;;;;-3.18;68.36;100490.75;5072059;28;20040;-59
2022/01/01 09:42:30;;;;;;;5.85;4.35;;;;;;;-3.06;68.38;100510.06;5071263;28;20032;-59
2022/01/01 09:44:58;;;;;;;5.15;4.65;;;;;;;-3.42;67.26;100472.97;5072844;28;20102;-57
2022/01/01 09:47:25;;;;;;;4.85;4.38;;;;;;;-3.32;68.02;100528.84;5071511;28;20044;-57
2022/01/01 09:49:51;;;;;;;4.80;4.18;;;;;;;-3.48;69.59;100540.03;5072830;28;20040;-57
2022/01/01 09:52:17;;;;;;;4.60;3.95;;;;;;;-3.93;69.77;100469.53;5072629;28;20028;-61
2022/01/01 09:54:43;;;;;;;4.93;4.35;;;;;;;-3.60;70.40;100504.25;5072687;28;20060;-61
2022/01/01 09:57:10;;;;;;;5.35;4.05;;;;;;;-3.43;70.06;100542.44;5072637;28;20036;-60
2022/01/01 09:59:40;;;;;;;5.47;4.88;;;;;;;-3.53;69.40;100538.59;5072706;28;20064;-59
2022/01/01 10:02:06;;;;;;;5.70;5.00;;;;;;;-3.55;69.63;100536.06;5072631;28;20040;-58
2022/01/01 10:04:50;;;;;;;6.03;4.30;;;;;;;-3.64;70.07;100533.94;5071030;28;20044;-61
2022/01/01 10:07:17;;;;;;;6.82;5.03;;;;;;;-3.65;69.98;100542.69;5070464;28;20102;-58
2022/01/01 10:09:43;;;;;;;6.75;5.68;;;;;;;-3.72;70.40;100551.72;5072753;28;20045;-57
2022/01/01 10:12:14;;;;;;;8.57;5.10;;;;;;;-3.81;70.22;100541.75;5072530;28;20039;-61
2022/01/01 10:14:42;;;;;;;6.75;5.43;;;;;;;-3.94;69.98;100535.50;5072036;28;20072;-57
2022/01/01 10:17:22;;;;;;;11.10;4.78;;;;;;;-4.15;70.99;100503.56;5071915;28;20085;-61
2022/01/01 10:19:52;;;;;;;6.65;4.93;;;;;;;-4.03;70.05;100535.97;5071766;28;20032;-59
2022/01/01 10:22:24;;;;;;;6.20;4.60;;;;;;;-4.12;70.06;100538.06;5071960;28;20527;-57
2022/01/01 10:28:05;;;;;;;4.65;3.90;;;;;;;-4.19;69.86;100551.44;5071743;28;20041;-57
2022/01/01 10:30:43;;;;;;;5.85;4.63;;;;;;;-4.47;70.10;100525.94;5071885;28;20115;-56
2022/01/01 10:33:23;;;;;;;5.43;4.25;;;;;;;-4.49;70.94;100539.00;5072012;28;20112;-59
2022/01/01 10:35:50;;;;;;;4.72;3.85;;;;;;;-4.50;70.93;100557.28;5071772;28;20086;-58
2022/01/01 10:38:27;;;;;;;7.20;4.88;;;;;;;-5.09;70.03;100467.38;5070552;28;20032;-55
2022/01/01 10:40:56;;;;;;;7.22;4.72;;;;;;;-4.51;70.29;100555.59;5072049;28;20041;-61
2022/01/01 10:43:33;;;;;;;;;;;;;;;-4.51;70.85;100555.59;5072137;28;20094;-61
2022/01/01 10:45:59;;;;;;;4.97;4.10;;;;;;;-4.71;70.53;100539.16;5071639;28;20032;-60
2022/01/01 10:50:56;;;;;;;6.00;4.97;;;;;;;-5.02;70.52;100507.72;5072091;28;20035;-64
2022/01/01 10:53:27;;;;;;;6.60;5.32;;;;;;;-4.74;70.68;100565.28;5071817;28;20036;-61
2022/01/01 10:55:58;;;;;;;5.60;4.25;;;;;;;-4.74;70.70;100560.09;5071532;28;20492;-55
2022/01/01 10:58:34;;;;;;;6.97;4.53;;;;;;;-4.82;70.52;100556.19;5071617;28;20047;-62
2022/01/01 11:01:02;;;;;;;6.55;4.22;;;;;;;-4.73;70.42;100589.50;5053522;28;20071;-56
2022/01/01 11:03:28;;;;;;;5.93;4.57;;;;;;;-5.36;70.34;100491.09;5071489;28;20037;-58
2022/01/01 11:06:10;;;;;;;6.35;4.60;;;;;;;-5.01;70.62;100556.16;5071429;28;20140;-64
2022/01/01 11:08:40;;;;;;;6.55;4.20;;;;;;;-5.28;70.59;100516.69;5071482;28;20040;-60
2022/01/01 11:11:06;;;;;;;6.78;4.85;;;;;;;-5.21;71.05;100523.28;5070122;28;20085;-56
2022/01/01 11:13:32;;;;;;;5.43;4.20;;;;;;;-4.90;71.57;100590.28;5070100;28;20037;-61
2022/01/01 11:15:58;;;;;;;4.88;3.92;;;;;;;-4.94;70.93;100580.94;5071109;28;20033;-55
2022/01/01 11:18:25;;;;;;;5.57;4.13;;;;;;;-4.86;71.54;100611.78;5071675;28;20063;-60
2022/01/01 11:20:52;;;;;;;4.20;3.80;;;;;;;-5.18;71.48;100561.28;5071557;28;20503;-59
2022/01/01 11:23:19;;;;;;;6.47;4.10;;;;;;;-4.91;72.09;100593.81;5071630;28;20133;-57
2022/01/01 11:25:46;;;;;;;4.70;4.10;;;;;;;-4.94;71.44;100598.28;5071325;28;20047;-54
2022/01/01 11:28:14;;;;;;;5.05;4.45;;;;;;;-5.00;71.02;100596.78;5071461;28;20060;-62
2022/01/01 11:30:49;;;;;;;4.57;3.20;;;;;;;-5.06;70.90;100584.09;5071252;28;20032;-60
2022/01/01 11:33:18;;;;;;;3.97;3.63;;;;;;;-5.06;71.19;100586.69;5071549;28;20506;-57